createdAt,value
2022-07-25T00:01:55.192Z,99.90
2022-07-25T00:04:24.277Z,99.90
2022-07-25T00:06:51.894Z,99.90
2022-07-25T00:09:19.362Z,99.90
2022-07-25T00:11:49.126Z,99.90
2022-07-25T00:14:16.548Z,99.90
2022-07-25T00:16:44.385Z,99.90
2022-07-25T00:19:11.738Z,99.90
2022-07-25T00:21:39.156Z,99.90
2022-07-25T00:24:07.327Z,99.90
2022-07-25T00:26:39.718Z,99.90
2022-07-25T00:29:07.960Z,99.90
2022-07-25T00:31:36.001Z,99.90
2022-07-25T00:34:04.371Z,99.90
2022-07-25T00:36:31.986Z,99.90
2022-07-25T00:38:59.389Z,99.90
2022-07-25T00:41:26.628Z,99.90
2022-07-25T00:43:53.956Z,99.90
2022-07-25T00:46:21.382Z,99.90
2022-07-25T00:48:49.165Z,99.90
2022-07-25T00:51:17.378Z,99.90
2022-07-25T00:53:45.645Z,99.90
2022-07-25T00:56:12.991Z,99.90
2022-07-25T00:58:40.340Z,99.90
2022-07-25T01:01:07.715Z,99.90
2022-07-25T01:03:35.872Z,99.90
2022-07-25T01:06:03.596Z,99.90
2022-07-25T01:08:31.372Z,99.90
2022-07-25T01:10:58.550Z,99.90
2022-07-25T01:13:25.849Z,99.90
2022-07-25T01:15:53.344Z,99.90
2022-07-25T01:18:20.713Z,99.90
2022-07-25T01:20:48.104Z,99.90
2022-07-25T01:23:15.559Z,99.90
2022-07-25T01:25:42.923Z,99.90
2022-07-25T01:28:10.147Z,99.90
2022-07-25T01:30:37.920Z,99.90
2022-07-25T01:33:06.746Z,99.90
2022-07-25T01:35:34.549Z,99.90
2022-07-25T01:38:02.175Z,99.90
2022-07-25T01:40:29.406Z,99.90
2022-07-25T01:42:56.669Z,99.90
2022-07-25T01:45:24.352Z,99.90
2022-07-25T01:47:51.773Z,99.90
2022-07-25T01:50:19.346Z,99.90
2022-07-25T01:52:46.784Z,99.90
2022-07-25T01:55:14.008Z,99.90
2022-07-25T01:57:41.588Z,99.90
2022-07-25T02:00:17.795Z,99.90
2022-07-25T02:02:45.698Z,99.90
2022-07-25T02:05:15.169Z,99.90
2022-07-25T02:07:42.533Z,99.90
2022-07-25T02:10:10.096Z,99.90
2022-07-25T02:12:37.387Z,99.90
2022-07-25T02:15:05.346Z,99.90
2022-07-25T02:17:34.910Z,99.90
2022-07-25T02:20:02.355Z,99.90
2022-07-25T02:22:29.694Z,99.90
2022-07-25T02:24:57.020Z,99.90
2022-07-25T02:27:24.309Z,99.90
2022-07-25T02:29:51.663Z,99.90
2022-07-25T02:32:19.209Z,99.90
2022-07-25T02:34:46.940Z,99.90
2022-07-25T02:37:14.235Z,99.90
2022-07-25T02:39:41.545Z,99.90
2022-07-25T02:42:08.801Z,99.90
2022-07-25T02:44:38.527Z,99.90
2022-07-25T02:47:05.906Z,99.90
2022-07-25T02:49:33.496Z,99.90
2022-07-25T02:52:00.790Z,99.90
2022-07-25T02:54:28.067Z,99.90
2022-07-25T02:56:55.424Z,99.90
2022-07-25T02:59:22.777Z,99.90
2022-07-25T03:01:50.164Z,99.90
2022-07-25T03:04:17.723Z,99.90
2022-07-25T03:06:45.225Z,99.90
2022-07-25T03:09:12.595Z,99.90
2022-07-25T03:11:39.886Z,99.90
2022-07-25T03:14:09.064Z,99.90
2022-07-25T03:16:36.942Z,99.90
2022-07-25T03:19:04.754Z,99.90
2022-07-25T03:21:32.107Z,99.90
2022-07-25T03:23:59.792Z,99.90
2022-07-25T03:26:27.157Z,99.90
2022-07-25T03:28:54.303Z,99.90
2022-07-25T03:31:21.713Z,99.90
2022-07-25T03:33:48.918Z,99.90
2022-07-25T03:36:16.342Z,99.90
2022-07-25T03:38:43.521Z,99.90
2022-07-25T03:41:10.872Z,99.90
2022-07-25T03:43:38.252Z,99.90
2022-07-25T03:46:05.586Z,99.90
2022-07-25T03:48:32.926Z,99.90
2022-07-25T03:51:04.834Z,99.90
2022-07-25T03:53:54.334Z,99.90
2022-07-25T03:56:24.758Z,99.90
2022-07-25T03:58:52.082Z,99.90
2022-07-25T04:01:19.482Z,99.90
2022-07-25T04:03:50.198Z,99.90
2022-07-25T04:06:17.486Z,99.90
2022-07-25T04:08:44.726Z,99.90
2022-07-25T04:11:13.344Z,99.90
2022-07-25T04:13:40.647Z,99.90
2022-07-25T04:16:11.650Z,99.90
2022-07-25T04:18:42.903Z,99.90
2022-07-25T04:21:11.443Z,99.90
2022-07-25T04:23:38.771Z,99.90
2022-07-25T04:26:06.290Z,99.90
2022-07-25T04:28:34.825Z,99.90
2022-07-25T04:31:02.056Z,99.90
2022-07-25T04:33:29.377Z,99.90
2022-07-25T04:35:56.600Z,99.90
2022-07-25T04:38:26.265Z,99.90
2022-07-25T04:40:53.516Z,99.90
2022-07-25T04:43:21.662Z,99.90
2022-07-25T04:45:48.887Z,99.90
2022-07-25T04:48:16.207Z,99.90
2022-07-25T04:50:43.426Z,99.90
2022-07-25T04:53:10.728Z,99.90
2022-07-25T04:55:38.997Z,99.90
2022-07-25T04:58:06.924Z,99.90
2022-07-25T05:00:34.728Z,99.90
2022-07-25T05:03:02.188Z,99.90
2022-07-25T05:05:29.408Z,99.90
2022-07-25T05:07:58.867Z,99.90
2022-07-25T05:10:37.861Z,99.90
2022-07-25T05:13:05.189Z,99.90
2022-07-25T05:15:32.318Z,99.90
2022-07-25T05:17:59.672Z,99.90
2022-07-25T05:20:27.582Z,99.90
2022-07-25T05:22:54.865Z,99.90
2022-07-25T05:25:24.162Z,99.90
2022-07-25T05:27:54.676Z,99.90
2022-07-25T05:30:22.078Z,99.90
2022-07-25T05:32:50.019Z,99.90
2022-07-25T05:35:17.328Z,99.90
2022-07-25T05:37:47.250Z,99.60
2022-07-25T05:40:14.801Z,99.10
2022-07-25T05:42:41.993Z,98.70
2022-07-25T05:45:11.841Z,98.80
2022-07-25T05:47:39.379Z,98.40
2022-07-25T05:50:09.401Z,97.60
2022-07-25T05:52:38.673Z,98.40
2022-07-25T05:55:06.379Z,97.50
2022-07-25T05:57:35.097Z,96.80
2022-07-25T06:00:04.752Z,96.60
2022-07-25T06:02:35.130Z,96.30
2022-07-25T06:05:02.592Z,95.80
2022-07-25T06:07:29.849Z,95.40
2022-07-25T06:09:57.129Z,95.40
2022-07-25T06:12:24.554Z,94.00
2022-07-25T06:14:52.026Z,93.30
2022-07-25T06:17:19.802Z,93.80
2022-07-25T06:19:47.126Z,94.00
2022-07-25T06:22:14.810Z,93.10
2022-07-25T06:24:42.429Z,92.90
2022-07-25T06:27:09.755Z,92.30
2022-07-25T06:29:40.393Z,91.50
2022-07-25T06:32:10.937Z,90.70
2022-07-25T06:34:38.702Z,88.50
2022-07-25T06:37:05.973Z,86.50
2022-07-25T06:39:33.329Z,85.40
2022-07-25T06:42:01.072Z,83.60
2022-07-25T06:44:35.518Z,81.70
2022-07-25T06:47:04.027Z,80.50
2022-07-25T06:49:33.980Z,80.00
2022-07-25T06:52:01.413Z,79.10
2022-07-25T06:54:28.634Z,78.60
2022-07-25T06:56:55.883Z,76.70
2022-07-25T06:59:23.122Z,75.00
2022-07-25T07:01:52.509Z,73.10
2022-07-25T07:04:20.020Z,74.10
2022-07-25T07:06:49.436Z,74.60
2022-07-25T07:09:16.579Z,74.20
2022-07-25T07:11:43.860Z,74.20
2022-07-25T07:14:12.879Z,73.50
2022-07-25T07:16:43.446Z,74.00
2022-07-25T07:19:14.783Z,72.40
2022-07-25T07:21:42.810Z,71.40
2022-07-25T07:24:23.918Z,71.00
2022-07-25T07:26:54.130Z,70.00
2022-07-25T07:29:24.067Z,69.60
2022-07-25T07:31:51.393Z,69.40
2022-07-25T07:34:18.702Z,67.90
2022-07-25T07:36:46.111Z,69.40
2022-07-25T07:39:13.299Z,73.50
2022-07-25T07:41:40.841Z,75.50
2022-07-25T07:44:08.074Z,74.10
2022-07-25T07:46:35.581Z,78.20
2022-07-25T07:49:02.995Z,80.50
2022-07-25T07:51:30.416Z,81.70
2022-07-25T07:54:16.006Z,85.50
2022-07-25T07:56:43.334Z,87.00
2022-07-25T07:59:10.690Z,85.40
2022-07-25T08:01:39.213Z,86.40
2022-07-25T08:04:06.563Z,86.60
2022-07-25T08:06:36.924Z,86.90
2022-07-25T08:09:04.730Z,85.20
2022-07-25T08:11:32.212Z,86.10
2022-07-25T08:13:59.411Z,79.60
2022-07-25T08:16:26.965Z,80.00
2022-07-25T08:18:54.226Z,79.70
2022-07-25T08:21:21.532Z,82.00
2022-07-25T08:23:48.813Z,83.30
2022-07-25T08:26:16.112Z,84.90
2022-07-25T08:28:43.767Z,85.00
2022-07-25T08:31:11.360Z,85.20
2022-07-25T08:33:38.615Z,84.30
2022-07-25T08:36:06.204Z,87.90
2022-07-25T08:38:35.522Z,85.10
2022-07-25T08:41:03.802Z,84.00
2022-07-25T08:43:37.940Z,85.50
2022-07-25T08:46:07.126Z,87.20
2022-07-25T08:48:34.942Z,88.50
2022-07-25T08:51:03.133Z,89.00
2022-07-25T08:53:33.544Z,86.90
2022-07-25T08:56:09.990Z,86.70
2022-07-25T08:58:40.740Z,84.90
2022-07-25T09:01:08.276Z,83.00
2022-07-25T09:03:36.859Z,82.70
2022-07-25T09:06:15.575Z,84.40
2022-07-25T09:08:57.123Z,82.50
2022-07-25T09:11:42.444Z,79.50
2022-07-25T09:14:14.957Z,76.20
2022-07-25T09:16:45.132Z,74.90
2022-07-25T09:19:17.848Z,71.60
2022-07-25T09:21:57.333Z,69.60
2022-07-25T09:24:26.788Z,73.20
2022-07-25T09:26:57.360Z,70.50
2022-07-25T09:29:30.612Z,71.70
2022-07-25T09:31:59.546Z,70.50
2022-07-25T09:34:47.661Z,69.10
2022-07-25T09:37:20.016Z,67.80
2022-07-25T09:39:51.659Z,68.50
2022-07-25T09:42:18.815Z,65.00
2022-07-25T09:45:12.673Z,64.30
2022-07-25T09:47:55.003Z,62.00
2022-07-25T09:50:23.864Z,58.80
2022-07-25T09:52:52.600Z,57.30
2022-07-25T09:55:21.137Z,57.20
2022-07-25T09:57:54.613Z,58.90
2022-07-25T10:00:28.153Z,58.80
2022-07-25T10:02:58.153Z,58.10
2022-07-25T10:05:38.557Z,59.20
2022-07-25T10:08:08.350Z,59.40
2022-07-25T10:10:41.502Z,58.70
2022-07-25T10:13:15.558Z,59.50
2022-07-25T10:15:51.179Z,60.00
2022-07-25T10:18:24.856Z,59.40
2022-07-25T10:20:55.470Z,59.90
2022-07-25T10:23:24.662Z,61.20
2022-07-25T10:26:01.163Z,62.30
2022-07-25T10:28:51.837Z,62.90
2022-07-25T10:31:34.116Z,59.50
2022-07-25T10:34:05.547Z,59.00
2022-07-25T10:36:49.634Z,58.60
2022-07-25T10:39:19.753Z,58.70
2022-07-25T10:42:05.359Z,59.30
2022-07-25T10:44:48.473Z,56.90
2022-07-25T10:47:17.140Z,56.70
2022-07-25T10:50:15.106Z,58.90
2022-07-25T10:52:42.468Z,59.80
2022-07-25T10:55:10.020Z,61.10
2022-07-25T10:57:49.581Z,61.40
2022-07-25T11:00:27.224Z,61.60
2022-07-25T11:02:57.884Z,60.70
2022-07-25T11:05:25.771Z,59.70
2022-07-25T11:08:20.208Z,58.90
2022-07-25T11:10:50.374Z,58.80
2022-07-25T11:13:17.886Z,58.60
2022-07-25T11:15:45.370Z,57.20
2022-07-25T11:18:13.153Z,58.00
2022-07-25T11:20:40.555Z,56.10
2022-07-25T11:23:08.002Z,56.30
2022-07-25T11:25:35.832Z,55.70
2022-07-25T11:28:04.101Z,55.40
2022-07-25T11:30:31.476Z,56.20
2022-07-25T11:33:01.812Z,56.80
2022-07-25T11:35:31.825Z,58.80
2022-07-25T11:38:04.125Z,58.70
2022-07-25T11:40:33.959Z,60.30
2022-07-25T11:43:01.385Z,61.50
2022-07-25T11:45:33.691Z,61.40
2022-07-25T11:48:10.357Z,62.90
2022-07-25T11:50:40.568Z,61.00
2022-07-25T11:53:10.589Z,61.20
2022-07-25T11:55:41.064Z,59.70
2022-07-25T11:58:09.834Z,59.20
2022-07-25T12:00:42.493Z,59.00
2022-07-25T12:03:15.577Z,57.80
2022-07-25T12:05:45.306Z,58.00
2022-07-25T12:08:18.102Z,57.80
2022-07-25T12:10:47.809Z,58.80
2022-07-25T12:13:27.029Z,59.80
2022-07-25T12:15:56.522Z,61.10
2022-07-25T12:18:24.425Z,61.70
2022-07-25T12:20:53.150Z,60.10
2022-07-25T12:23:22.840Z,60.80
2022-07-25T12:25:53.571Z,59.70
2022-07-25T12:28:21.092Z,59.90
2022-07-25T12:30:55.917Z,60.00
2022-07-25T12:33:24.523Z,58.40
2022-07-25T12:35:51.990Z,58.30
2022-07-25T12:38:19.902Z,56.20
2022-07-25T12:40:47.253Z,57.50
2022-07-25T12:43:14.780Z,56.60
2022-07-25T12:45:42.810Z,56.20
2022-07-25T12:48:10.849Z,57.00
2022-07-25T12:50:38.237Z,55.70
2022-07-25T12:53:05.631Z,56.00
2022-07-25T12:55:33.048Z,56.80
2022-07-25T12:58:01.044Z,58.30
2022-07-25T13:00:28.924Z,59.20
2022-07-25T13:02:56.421Z,59.20
2022-07-25T13:05:24.929Z,59.40
2022-07-25T13:07:52.935Z,60.40
2022-07-25T13:10:20.608Z,60.90
2022-07-25T13:12:48.739Z,61.70
2022-07-25T13:15:18.321Z,60.90
2022-07-25T13:17:45.676Z,60.50
2022-07-25T13:20:13.253Z,60.00
2022-07-25T13:22:40.651Z,59.30
2022-07-25T13:25:08.337Z,58.40
2022-07-25T13:27:39.353Z,59.30
2022-07-25T13:30:08.131Z,58.10
2022-07-25T13:32:35.453Z,59.20
2022-07-25T13:35:05.499Z,60.60
2022-07-25T13:37:33.300Z,62.60
2022-07-25T13:40:00.774Z,62.30
2022-07-25T13:42:28.117Z,62.90
2022-07-25T13:44:55.643Z,63.00
2022-07-25T13:47:26.961Z,62.50
2022-07-25T13:49:58.981Z,62.60
2022-07-25T13:52:26.306Z,62.70
2022-07-25T13:54:53.781Z,62.00
2022-07-25T13:57:21.035Z,64.80
2022-07-25T13:59:48.606Z,65.50
2022-07-25T14:02:15.871Z,66.40
2022-07-25T14:04:43.331Z,67.80
2022-07-25T14:07:10.694Z,67.50
2022-07-25T14:09:38.944Z,68.40
2022-07-25T14:12:06.243Z,67.50
2022-07-25T14:14:33.580Z,68.50
2022-07-25T14:17:00.880Z,69.40
2022-07-25T14:19:28.362Z,70.60
2022-07-25T14:21:55.719Z,70.70
2022-07-25T14:24:23.086Z,70.90
2022-07-25T14:26:50.479Z,70.90
2022-07-25T14:29:20.076Z,71.90
2022-07-25T14:31:47.532Z,71.10
2022-07-25T14:34:18.371Z,70.20
2022-07-25T14:36:47.778Z,70.00
2022-07-25T14:39:15.961Z,69.90
2022-07-25T14:41:43.660Z,69.10
2022-07-25T14:44:12.118Z,69.10
2022-07-25T14:46:40.790Z,69.10
2022-07-25T14:49:08.928Z,70.10
2022-07-25T14:51:36.536Z,68.90
2022-07-25T14:54:03.909Z,70.00
2022-07-25T14:56:31.772Z,69.60
2022-07-25T14:58:59.603Z,70.30
2022-07-25T15:01:27.138Z,70.30
2022-07-25T15:03:56.326Z,70.20
2022-07-25T15:06:28.782Z,70.80
2022-07-25T15:08:59.194Z,70.00
2022-07-25T15:11:28.945Z,69.90
2022-07-25T15:13:57.343Z,69.70
2022-07-25T15:16:25.667Z,71.00
2022-07-25T15:19:15.337Z,70.50
2022-07-25T15:21:41.086Z,71.00
2022-07-25T15:24:09.031Z,72.70
2022-07-25T15:26:37.014Z,72.90
2022-07-25T15:29:08.276Z,73.60
2022-07-25T15:31:37.305Z,73.70
2022-07-25T15:34:04.938Z,74.30
2022-07-25T15:36:32.399Z,75.00
2022-07-25T15:38:59.739Z,75.50
2022-07-25T15:41:27.147Z,76.10
2022-07-25T15:43:54.476Z,75.40
2022-07-25T15:46:23.027Z,75.30
2022-07-25T15:48:50.582Z,75.00
2022-07-25T15:51:18.309Z,73.90
2022-07-25T15:53:46.107Z,74.60
2022-07-25T15:56:16.633Z,75.40
2022-07-25T15:58:44.823Z,75.90
2022-07-25T16:01:12.424Z,76.20
2022-07-25T16:03:42.610Z,77.20
2022-07-25T16:06:10.151Z,77.60
2022-07-25T16:08:37.868Z,77.30
2022-07-25T16:11:05.360Z,77.80
2022-07-25T16:13:33.086Z,77.80
2022-07-25T16:16:02.730Z,78.60
2022-07-25T16:18:31.997Z,78.40
2022-07-25T16:21:00.676Z,79.10
2022-07-25T16:23:28.328Z,79.50
2022-07-25T16:25:55.617Z,78.10
2022-07-25T16:28:23.125Z,78.20
2022-07-25T16:30:50.623Z,78.00
2022-07-25T16:33:18.036Z,78.60
2022-07-25T16:35:45.444Z,78.80
2022-07-25T16:38:13.099Z,77.80
2022-07-25T16:40:40.402Z,77.20
2022-07-25T16:43:08.222Z,77.70
2022-07-25T16:45:36.784Z,77.90
2022-07-25T16:48:06.615Z,78.80
2022-07-25T16:50:33.962Z,78.00
2022-07-25T16:53:01.464Z,78.00
2022-07-25T16:55:28.853Z,77.90
2022-07-25T16:57:57.642Z,78.30
2022-07-25T17:00:25.011Z,78.20
2022-07-25T17:02:52.478Z,78.00
2022-07-25T17:05:20.089Z,78.90
2022-07-25T17:07:49.117Z,80.60
2022-07-25T17:10:16.484Z,82.10
2022-07-25T17:12:43.908Z,82.00
2022-07-25T17:15:12.587Z,82.80
2022-07-25T17:17:42.902Z,83.20
2022-07-25T17:20:10.638Z,83.70
2022-07-25T17:22:39.030Z,84.40
2022-07-25T17:25:07.788Z,84.70
2022-07-25T17:27:35.889Z,85.30
2022-07-25T17:30:04.876Z,85.50
2022-07-25T17:32:32.297Z,85.30
2022-07-25T17:35:02.056Z,85.60
2022-07-25T17:37:29.752Z,86.10
2022-07-25T17:39:58.617Z,85.30
2022-07-25T17:42:26.124Z,86.10
2022-07-25T17:44:53.461Z,86.80
2022-07-25T17:47:22.227Z,88.40
2022-07-25T17:49:50.511Z,89.00
2022-07-25T17:52:19.083Z,88.20
2022-07-25T17:54:46.307Z,88.00
2022-07-25T17:57:13.797Z,87.00
2022-07-25T17:59:41.020Z,86.80
2022-07-25T18:02:08.438Z,86.40
2022-07-25T18:04:36.082Z,86.90
2022-07-25T18:07:04.912Z,86.80
2022-07-25T18:09:32.189Z,87.00
2022-07-25T18:12:00.403Z,87.00
2022-07-25T18:14:28.807Z,87.30
2022-07-25T18:16:56.772Z,87.70
2022-07-25T18:19:25.313Z,87.90
2022-07-25T18:21:53.378Z,88.50
2022-07-25T18:24:20.594Z,88.90
2022-07-25T18:26:47.941Z,89.30
2022-07-25T18:29:15.184Z,89.60
2022-07-25T18:31:42.591Z,89.70
2022-07-25T18:34:10.192Z,90.00
2022-07-25T18:36:37.916Z,90.70
2022-07-25T18:39:06.081Z,90.60
2022-07-25T18:41:34.369Z,90.50
2022-07-25T18:44:01.877Z,90.60
2022-07-25T18:46:30.437Z,90.80
2022-07-25T18:48:58.541Z,91.40
2022-07-25T18:51:25.852Z,91.70
2022-07-25T18:53:53.071Z,92.40
2022-07-25T18:56:20.413Z,93.20
2022-07-25T18:58:47.811Z,93.50
2022-07-25T19:01:15.407Z,93.90
2022-07-25T19:03:42.791Z,94.10
2022-07-25T19:06:10.516Z,94.00
2022-07-25T19:08:38.045Z,94.10
2022-07-25T19:11:08.704Z,94.70
2022-07-25T19:13:49.690Z,94.30
2022-07-25T19:16:19.127Z,94.30
2022-07-25T19:18:47.195Z,94.50
2022-07-25T19:21:15.945Z,94.60
2022-07-25T19:23:48.300Z,94.80
2022-07-25T19:26:18.089Z,95.10
2022-07-25T19:28:45.584Z,95.10
2022-07-25T19:31:14.889Z,95.20
2022-07-25T19:33:42.446Z,95.10
2022-07-25T19:36:10.212Z,95.30
2022-07-25T19:38:37.555Z,95.40
2022-07-25T19:41:05.110Z,95.90
2022-07-25T19:43:32.600Z,95.90
2022-07-25T19:46:00.094Z,96.00
2022-07-25T19:48:27.525Z,96.20
2022-07-25T19:50:55.003Z,96.50
2022-07-25T19:53:28.139Z,96.70
2022-07-25T19:55:56.032Z,97.00
2022-07-25T19:58:23.506Z,97.20
2022-07-25T20:00:51.063Z,97.40
2022-07-25T20:03:23.258Z,97.50
2022-07-25T20:05:51.589Z,97.90
2022-07-25T20:08:19.093Z,98.60
2022-07-25T20:10:47.555Z,99.40
2022-07-25T20:13:14.971Z,99.50
2022-07-25T20:15:42.451Z,99.80
2022-07-25T20:18:09.788Z,99.90
2022-07-25T20:20:37.335Z,99.90
2022-07-25T20:23:04.750Z,99.90
2022-07-25T20:25:32.312Z,99.90
2022-07-25T20:27:59.606Z,99.90
2022-07-25T20:30:29.299Z,99.90
2022-07-25T20:33:00.230Z,99.90
2022-07-25T20:35:34.527Z,99.90
2022-07-25T20:38:09.123Z,99.90
2022-07-25T20:40:43.828Z,99.90
2022-07-25T20:43:15.892Z,99.90
2022-07-25T20:45:43.407Z,99.90
2022-07-25T20:48:11.098Z,99.90
2022-07-25T20:50:39.421Z,99.90
2022-07-25T20:53:07.770Z,99.90
2022-07-25T20:55:36.019Z,99.90
2022-07-25T20:58:05.026Z,99.90
2022-07-25T21:00:32.600Z,99.90
2022-07-25T21:03:01.068Z,99.90
2022-07-25T21:05:28.984Z,99.90
2022-07-25T21:07:56.860Z,99.90
2022-07-25T21:10:24.359Z,99.90
2022-07-25T21:12:51.982Z,99.90
2022-07-25T21:15:20.296Z,99.90
2022-07-25T21:17:47.684Z,99.90
2022-07-25T21:20:18.256Z,99.90
2022-07-25T21:22:45.916Z,99.90
2022-07-25T21:25:13.424Z,99.90
2022-07-25T21:27:41.133Z,99.90
2022-07-25T21:30:10.909Z,99.90
2022-07-25T21:32:39.642Z,99.90
2022-07-25T21:35:07.700Z,99.90
2022-07-25T21:37:35.245Z,99.90
2022-07-25T21:40:03.138Z,99.90
2022-07-25T21:42:31.715Z,99.90
2022-07-25T21:45:02.197Z,99.90
2022-07-25T21:47:29.658Z,99.90
2022-07-25T21:50:19.205Z,99.90
2022-07-25T21:52:52.580Z,99.90
2022-07-25T21:55:21.066Z,99.90
2022-07-25T21:57:49.091Z,99.90
2022-07-25T22:00:17.320Z,99.90
2022-07-25T22:02:46.341Z,99.90
2022-07-25T22:05:15.869Z,99.90
2022-07-25T22:07:44.125Z,99.90
2022-07-25T22:10:13.319Z,99.90
2022-07-25T22:12:41.514Z,99.90
2022-07-25T22:15:14.412Z,99.90
2022-07-25T22:17:49.068Z,99.90
2022-07-25T22:20:21.009Z,99.90
2022-07-25T22:22:49.159Z,99.90
2022-07-25T22:25:18.904Z,99.90
2022-07-25T22:27:46.299Z,99.90
2022-07-25T22:30:18.868Z,99.90
2022-07-25T22:32:48.260Z,99.90
2022-07-25T22:35:19.048Z,99.90
2022-07-25T22:37:46.662Z,99.90
2022-07-25T22:40:17.259Z,99.90
2022-07-25T22:42:44.737Z,99.90
2022-07-25T22:45:12.103Z,99.90
2022-07-25T22:47:41.969Z,99.90
2022-07-25T22:50:09.938Z,99.90
2022-07-25T22:52:37.308Z,99.90
2022-07-25T22:55:05.002Z,99.90
2022-07-25T22:57:37.095Z,99.90
2022-07-25T23:00:12.889Z,99.90
2022-07-25T23:02:40.720Z,99.90
2022-07-25T23:05:08.742Z,99.90
2022-07-25T23:07:38.408Z,99.90
2022-07-25T23:10:06.731Z,99.90
2022-07-25T23:12:38.842Z,99.90
2022-07-25T23:15:10.029Z,99.90
2022-07-25T23:17:37.927Z,99.90
2022-07-25T23:20:06.602Z,99.90
2022-07-25T23:22:34.007Z,99.90
2022-07-25T23:25:01.359Z,99.90
2022-07-25T23:27:33.245Z,99.90
2022-07-25T23:30:07.788Z,99.90
2022-07-25T23:32:35.311Z,99.90
2022-07-25T23:35:02.707Z,99.90
2022-07-25T23:37:30.080Z,99.90
2022-07-25T23:39:59.908Z,99.90
2022-07-25T23:42:30.692Z,99.90
2022-07-25T23:44:59.046Z,99.90
2022-07-25T23:47:36.907Z,99.90
2022-07-25T23:50:11.736Z,99.90
2022-07-25T23:52:39.457Z,99.90
2022-07-25T23:55:07.795Z,99.90
2022-07-25T23:57:35.232Z,99.90
